sensor_id;sensor_type;location;lat;lon;timestamp;P1;durP1;ratioP1;P2;durP2;ratioP2
23338;SDS011;11841;49.368;20.962;2023-07-29T00:02:14;5.00;;;3.22;;
23338;SDS011;11841;49.368;20.962;2023-07-29T00:04:59;7.15;;;2.95;;
23338;SDS011;11841;49.368;20.962;2023-07-29T00:07:45;4.05;;;2.90;;
23338;SDS011;11841;49.368;20.962;2023-07-29T00:10:35;5.40;;;2.70;;
23338;SDS011;11841;49.368;20.962;2023-07-29T00:13:21;3.47;;;2.78;;
23338;SDS011;11841;49.368;20.962;2023-07-29T00:16:07;5.72;;;2.67;;
23338;SDS011;11841;49.368;20.962;2023-07-29T00:18:52;8.15;;;2.63;;
23338;SDS011;11841;49.368;20.962;2023-07-29T00:21:38;4.75;;;3.08;;
23338;SDS011;11841;49.368;20.962;2023-07-29T00:24:23;5.45;;;2.88;;
23338;SDS011;11841;49.368;20.962;2023-07-29T00:27:08;6.63;;;2.72;;
23338;SDS011;11841;49.368;20.962;2023-07-29T00:29:54;4.97;;;2.85;;
23338;SDS011;11841;49.368;20.962;2023-07-29T00:32:39;6.97;;;2.40;;
23338;SDS011;11841;49.368;20.962;2023-07-29T00:35:25;5.50;;;3.22;;
23338;SDS011;11841;49.368;20.962;2023-07-29T00:38:10;3.80;;;2.63;;
23338;SDS011;11841;49.368;20.962;2023-07-29T00:41:00;3.40;;;2.45;;
23338;SDS011;11841;49.368;20.962;2023-07-29T00:43:47;8.07;;;2.60;;
23338;SDS011;11841;49.368;20.962;2023-07-29T00:46:33;10.13;;;4.97;;
23338;SDS011;11841;49.368;20.962;2023-07-29T00:49:20;3.40;;;2.50;;
23338;SDS011;11841;49.368;20.962;2023-07-29T00:52:06;9.68;;;3.05;;
23338;SDS011;11841;49.368;20.962;2023-07-29T00:54:52;3.53;;;2.85;;
23338;SDS011;11841;49.368;20.962;2023-07-29T00:57:37;3.35;;;2.92;;
23338;SDS011;11841;49.368;20.962;2023-07-29T01:00:22;6.32;;;2.70;;
23338;SDS011;11841;49.368;20.962;2023-07-29T01:03:09;3.60;;;2.78;;
23338;SDS011;11841;49.368;20.962;2023-07-29T01:09:04;11.02;;;2.75;;
23338;SDS011;11841;49.368;20.962;2023-07-29T01:12:09;6.18;;;2.90;;
23338;SDS011;11841;49.368;20.962;2023-07-29T01:15:09;4.40;;;2.92;;
23338;SDS011;11841;49.368;20.962;2023-07-29T01:18:05;4.50;;;2.85;;
23338;SDS011;11841;49.368;20.962;2023-07-29T01:20:54;4.22;;;2.53;;
23338;SDS011;11841;49.368;20.962;2023-07-29T01:23:44;7.55;;;2.95;;
23338;SDS011;11841;49.368;20.962;2023-07-29T01:26:29;7.50;;;2.72;;
23338;SDS011;11841;49.368;20.962;2023-07-29T01:29:15;7.03;;;2.50;;
23338;SDS011;11841;49.368;20.962;2023-07-29T01:32:02;6.88;;;2.70;;
23338;SDS011;11841;49.368;20.962;2023-07-29T01:34:56;3.45;;;2.33;;
23338;SDS011;11841;49.368;20.962;2023-07-29T01:37:48;2.20;;;1.98;;
23338;SDS011;11841;49.368;20.962;2023-07-29T01:40:36;2.95;;;2.03;;
23338;SDS011;11841;49.368;20.962;2023-07-29T01:43:22;3.00;;;1.92;;
23338;SDS011;11841;49.368;20.962;2023-07-29T01:46:10;3.15;;;2.05;;
23338;SDS011;11841;49.368;20.962;2023-07-29T01:48:58;4.55;;;1.92;;
23338;SDS011;11841;49.368;20.962;2023-07-29T01:51:43;3.15;;;1.98;;
23338;SDS011;11841;49.368;20.962;2023-07-29T01:54:29;2.28;;;1.88;;
23338;SDS011;11841;49.368;20.962;2023-07-29T01:57:14;3.10;;;2.13;;
23338;SDS011;11841;49.368;20.962;2023-07-29T01:59:59;3.80;;;2.30;;
23338;SDS011;11841;49.368;20.962;2023-07-29T02:02:45;4.25;;;1.90;;
23338;SDS011;11841;49.368;20.962;2023-07-29T02:05:30;6.88;;;2.10;;
23338;SDS011;11841;49.368;20.962;2023-07-29T02:08:16;2.30;;;1.83;;
23338;SDS011;11841;49.368;20.962;2023-07-29T02:11:01;2.80;;;1.98;;
23338;SDS011;11841;49.368;20.962;2023-07-29T02:13:46;3.65;;;1.90;;
23338;SDS011;11841;49.368;20.962;2023-07-29T02:16:32;2.53;;;1.90;;
23338;SDS011;11841;49.368;20.962;2023-07-29T02:19:19;3.60;;;1.88;;
23338;SDS011;11841;49.368;20.962;2023-07-29T02:22:05;6.35;;;1.70;;
23338;SDS011;11841;49.368;20.962;2023-07-29T02:24:50;6.05;;;2.33;;
23338;SDS011;11841;49.368;20.962;2023-07-29T02:27:35;5.18;;;1.90;;
23338;SDS011;11841;49.368;20.962;2023-07-29T02:30:21;6.30;;;2.60;;
23338;SDS011;11841;49.368;20.962;2023-07-29T02:33:07;3.85;;;2.28;;
23338;SDS011;11841;49.368;20.962;2023-07-29T02:35:52;6.65;;;1.90;;
23338;SDS011;11841;49.368;20.962;2023-07-29T02:38:38;6.03;;;1.83;;
23338;SDS011;11841;49.368;20.962;2023-07-29T02:41:23;4.70;;;2.25;;
23338;SDS011;11841;49.368;20.962;2023-07-29T02:44:08;2.05;;;1.65;;
23338;SDS011;11841;49.368;20.962;2023-07-29T02:46:54;2.22;;;1.98;;
23338;SDS011;11841;49.368;20.962;2023-07-29T02:49:41;2.38;;;2.17;;
23338;SDS011;11841;49.368;20.962;2023-07-29T02:52:26;3.20;;;2.25;;
23338;SDS011;11841;49.368;20.962;2023-07-29T02:55:11;5.25;;;2.15;;
23338;SDS011;11841;49.368;20.962;2023-07-29T02:57:57;2.15;;;1.85;;
23338;SDS011;11841;49.368;20.962;2023-07-29T03:00:42;2.40;;;2.10;;
23338;SDS011;11841;49.368;20.962;2023-07-29T03:03:28;3.97;;;1.88;;
23338;SDS011;11841;49.368;20.962;2023-07-29T03:06:14;5.60;;;1.98;;
23338;SDS011;11841;49.368;20.962;2023-07-29T03:09:00;5.38;;;2.35;;
23338;SDS011;11841;49.368;20.962;2023-07-29T03:11:45;3.20;;;2.13;;
23338;SDS011;11841;49.368;20.962;2023-07-29T03:14:31;6.35;;;2.08;;
23338;SDS011;11841;49.368;20.962;2023-07-29T03:17:16;1.60;;;1.50;;
23338;SDS011;11841;49.368;20.962;2023-07-29T03:20:02;4.55;;;2.03;;
23338;SDS011;11841;49.368;20.962;2023-07-29T03:22:47;3.38;;;2.33;;
23338;SDS011;11841;49.368;20.962;2023-07-29T03:25:33;5.15;;;2.42;;
23338;SDS011;11841;49.368;20.962;2023-07-29T03:28:18;2.50;;;2.17;;
23338;SDS011;11841;49.368;20.962;2023-07-29T03:31:03;2.13;;;1.85;;
23338;SDS011;11841;49.368;20.962;2023-07-29T03:33:49;3.17;;;2.20;;
23338;SDS011;11841;49.368;20.962;2023-07-29T03:36:34;1.85;;;1.75;;
23338;SDS011;11841;49.368;20.962;2023-07-29T03:39:20;2.30;;;1.90;;
23338;SDS011;11841;49.368;20.962;2023-07-29T03:42:05;5.63;;;2.33;;
23338;SDS011;11841;49.368;20.962;2023-07-29T03:44:51;4.10;;;2.00;;
23338;SDS011;11841;49.368;20.962;2023-07-29T03:47:36;7.22;;;2.00;;
23338;SDS011;11841;49.368;20.962;2023-07-29T03:50:21;13.73;;;2.33;;
23338;SDS011;11841;49.368;20.962;2023-07-29T03:53:07;1.77;;;1.63;;
23338;SDS011;11841;49.368;20.962;2023-07-29T03:55:55;1.83;;;1.67;;
23338;SDS011;11841;49.368;20.962;2023-07-29T03:58:40;1.77;;;1.55;;
23338;SDS011;11841;49.368;20.962;2023-07-29T04:01:25;23.23;;;2.25;;
23338;SDS011;11841;49.368;20.962;2023-07-29T04:04:10;2.38;;;1.58;;
23338;SDS011;11841;49.368;20.962;2023-07-29T04:06:56;1.83;;;1.55;;
23338;SDS011;11841;49.368;20.962;2023-07-29T04:09:41;3.28;;;1.60;;
23338;SDS011;11841;49.368;20.962;2023-07-29T04:12:28;2.80;;;1.70;;
23338;SDS011;11841;49.368;20.962;2023-07-29T04:15:14;5.90;;;1.55;;
23338;SDS011;11841;49.368;20.962;2023-07-29T04:17:59;2.28;;;1.50;;
23338;SDS011;11841;49.368;20.962;2023-07-29T04:20:44;2.05;;;1.63;;
23338;SDS011;11841;49.368;20.962;2023-07-29T04:23:30;1.67;;;1.55;;
23338;SDS011;11841;49.368;20.962;2023-07-29T04:26:15;1.52;;;1.42;;
23338;SDS011;11841;49.368;20.962;2023-07-29T04:29:00;5.75;;;1.90;;
23338;SDS011;11841;49.368;20.962;2023-07-29T04:31:46;2.17;;;1.60;;
23338;SDS011;11841;49.368;20.962;2023-07-29T04:34:31;3.70;;;1.70;;
23338;SDS011;11841;49.368;20.962;2023-07-29T04:37:16;2.80;;;2.00;;
23338;SDS011;11841;49.368;20.962;2023-07-29T04:40:02;2.50;;;2.25;;
23338;SDS011;11841;49.368;20.962;2023-07-29T04:42:47;1.55;;;1.45;;
23338;SDS011;11841;49.368;20.962;2023-07-29T04:45:33;3.03;;;2.05;;
23338;SDS011;11841;49.368;20.962;2023-07-29T04:48:18;4.72;;;1.65;;
23338;SDS011;11841;49.368;20.962;2023-07-29T04:51:03;2.28;;;2.00;;
23338;SDS011;11841;49.368;20.962;2023-07-29T04:53:49;8.35;;;2.30;;
23338;SDS011;11841;49.368;20.962;2023-07-29T04:56:35;3.65;;;1.98;;
23338;SDS011;11841;49.368;20.962;2023-07-29T04:59:21;3.65;;;2.35;;
23338;SDS011;11841;49.368;20.962;2023-07-29T05:02:06;4.93;;;2.35;;
23338;SDS011;11841;49.368;20.962;2023-07-29T05:04:52;2.20;;;2.00;;
23338;SDS011;11841;49.368;20.962;2023-07-29T05:07:37;3.97;;;2.10;;
23338;SDS011;11841;49.368;20.962;2023-07-29T05:10:23;3.03;;;2.47;;
23338;SDS011;11841;49.368;20.962;2023-07-29T05:13:08;5.07;;;2.53;;
23338;SDS011;11841;49.368;20.962;2023-07-29T05:15:54;1.83;;;1.65;;
23338;SDS011;11841;49.368;20.962;2023-07-29T05:18:39;2.38;;;2.05;;
23338;SDS011;11841;49.368;20.962;2023-07-29T05:21:24;2.70;;;2.28;;
23338;SDS011;11841;49.368;20.962;2023-07-29T05:24:10;3.42;;;2.40;;
23338;SDS011;11841;49.368;20.962;2023-07-29T05:26:55;5.22;;;2.38;;
23338;SDS011;11841;49.368;20.962;2023-07-29T05:29:40;3.08;;;2.83;;
23338;SDS011;11841;49.368;20.962;2023-07-29T05:32:26;3.05;;;2.10;;
23338;SDS011;11841;49.368;20.962;2023-07-29T05:35:11;2.75;;;1.85;;
23338;SDS011;11841;49.368;20.962;2023-07-29T05:37:56;6.68;;;2.03;;
23338;SDS011;11841;49.368;20.962;2023-07-29T05:40:42;2.88;;;2.00;;
23338;SDS011;11841;49.368;20.962;2023-07-29T05:43:27;5.90;;;2.88;;
23338;SDS011;11841;49.368;20.962;2023-07-29T05:46:12;8.65;;;2.70;;
23338;SDS011;11841;49.368;20.962;2023-07-29T05:48:58;4.20;;;2.35;;
23338;SDS011;11841;49.368;20.962;2023-07-29T05:51:43;4.18;;;2.10;;
23338;SDS011;11841;49.368;20.962;2023-07-29T05:54:28;2.58;;;2.10;;
23338;SDS011;11841;49.368;20.962;2023-07-29T05:57:14;3.03;;;2.17;;
23338;SDS011;11841;49.368;20.962;2023-07-29T05:59:59;9.05;;;2.70;;
23338;SDS011;11841;49.368;20.962;2023-07-29T06:02:44;2.10;;;1.90;;
23338;SDS011;11841;49.368;20.962;2023-07-29T06:05:30;2.65;;;2.15;;
23338;SDS011;11841;49.368;20.962;2023-07-29T06:08:15;4.20;;;2.35;;
23338;SDS011;11841;49.368;20.962;2023-07-29T06:11:00;3.00;;;2.13;;
23338;SDS011;11841;49.368;20.962;2023-07-29T06:13:46;4.70;;;2.60;;
23338;SDS011;11841;49.368;20.962;2023-07-29T06:16:32;2.45;;;2.20;;
23338;SDS011;11841;49.368;20.962;2023-07-29T06:19:19;2.70;;;1.95;;
23338;SDS011;11841;49.368;20.962;2023-07-29T06:22:05;8.48;;;2.58;;
23338;SDS011;11841;49.368;20.962;2023-07-29T06:24:51;2.28;;;2.08;;
23338;SDS011;11841;49.368;20.962;2023-07-29T06:27:36;6.63;;;2.75;;
23338;SDS011;11841;49.368;20.962;2023-07-29T06:30:21;2.42;;;1.95;;
23338;SDS011;11841;49.368;20.962;2023-07-29T06:33:07;3.13;;;2.33;;
23338;SDS011;11841;49.368;20.962;2023-07-29T06:35:52;3.03;;;2.45;;
23338;SDS011;11841;49.368;20.962;2023-07-29T06:38:37;3.40;;;2.47;;
23338;SDS011;11841;49.368;20.962;2023-07-29T06:41:22;4.32;;;2.88;;
23338;SDS011;11841;49.368;20.962;2023-07-29T06:44:09;5.05;;;3.10;;
23338;SDS011;11841;49.368;20.962;2023-07-29T06:46:54;4.45;;;3.67;;
23338;SDS011;11841;49.368;20.962;2023-07-29T06:49:40;4.60;;;2.75;;
23338;SDS011;11841;49.368;20.962;2023-07-29T06:52:25;3.85;;;3.10;;
23338;SDS011;11841;49.368;20.962;2023-07-29T06:55:10;5.25;;;4.03;;
23338;SDS011;11841;49.368;20.962;2023-07-29T06:57:56;5.05;;;3.40;;
23338;SDS011;11841;49.368;20.962;2023-07-29T07:00:41;4.45;;;3.15;;
23338;SDS011;11841;49.368;20.962;2023-07-29T07:03:27;7.10;;;4.97;;
23338;SDS011;11841;49.368;20.962;2023-07-29T07:06:12;9.95;;;6.10;;
23338;SDS011;11841;49.368;20.962;2023-07-29T07:08:57;28.33;;;13.43;;
23338;SDS011;11841;49.368;20.962;2023-07-29T07:11:43;28.90;;;14.35;;
23338;SDS011;11841;49.368;20.962;2023-07-29T07:14:28;40.53;;;18.02;;
23338;SDS011;11841;49.368;20.962;2023-07-29T07:17:14;33.63;;;17.85;;
23338;SDS011;11841;49.368;20.962;2023-07-29T07:19:59;23.50;;;12.68;;
23338;SDS011;11841;49.368;20.962;2023-07-29T07:22:45;15.57;;;8.38;;
23338;SDS011;11841;49.368;20.962;2023-07-29T07:25:31;13.63;;;6.65;;
23338;SDS011;11841;49.368;20.962;2023-07-29T07:28:16;9.07;;;3.72;;
23338;SDS011;11841;49.368;20.962;2023-07-29T07:31:01;8.30;;;4.82;;
23338;SDS011;11841;49.368;20.962;2023-07-29T07:33:47;4.70;;;3.22;;
23338;SDS011;11841;49.368;20.962;2023-07-29T07:36:32;6.25;;;3.00;;
23338;SDS011;11841;49.368;20.962;2023-07-29T07:39:18;4.93;;;3.05;;
23338;SDS011;11841;49.368;20.962;2023-07-29T07:42:03;4.55;;;3.03;;
23338;SDS011;11841;49.368;20.962;2023-07-29T07:44:48;5.45;;;2.85;;
23338;SDS011;11841;49.368;20.962;2023-07-29T07:47:34;3.10;;;2.58;;
23338;SDS011;11841;49.368;20.962;2023-07-29T07:50:19;3.15;;;2.60;;
23338;SDS011;11841;49.368;20.962;2023-07-29T07:53:05;3.97;;;2.53;;
23338;SDS011;11841;49.368;20.962;2023-07-29T07:55:51;3.60;;;2.80;;
23338;SDS011;11841;49.368;20.962;2023-07-29T07:58:36;4.53;;;2.90;;
23338;SDS011;11841;49.368;20.962;2023-07-29T08:01:21;3.63;;;3.25;;
23338;SDS011;11841;49.368;20.962;2023-07-29T08:04:07;5.18;;;3.17;;
23338;SDS011;11841;49.368;20.962;2023-07-29T08:06:52;6.10;;;3.08;;
23338;SDS011;11841;49.368;20.962;2023-07-29T08:09:37;5.97;;;2.80;;
23338;SDS011;11841;49.368;20.962;2023-07-29T08:12:23;6.20;;;2.78;;
23338;SDS011;11841;49.368;20.962;2023-07-29T08:15:08;3.83;;;2.63;;
23338;SDS011;11841;49.368;20.962;2023-07-29T08:17:54;3.55;;;2.97;;
23338;SDS011;11841;49.368;20.962;2023-07-29T08:20:39;3.92;;;2.90;;
23338;SDS011;11841;49.368;20.962;2023-07-29T08:23:25;4.57;;;3.70;;
23338;SDS011;11841;49.368;20.962;2023-07-29T08:26:11;17.83;;;5.78;;
23338;SDS011;11841;49.368;20.962;2023-07-29T08:28:56;17.02;;;6.78;;
23338;SDS011;11841;49.368;20.962;2023-07-29T08:31:41;9.93;;;4.22;;
23338;SDS011;11841;49.368;20.962;2023-07-29T08:34:27;11.98;;;3.75;;
23338;SDS011;11841;49.368;20.962;2023-07-29T08:37:12;4.97;;;2.72;;
23338;SDS011;11841;49.368;20.962;2023-07-29T08:39:58;3.55;;;2.65;;
23338;SDS011;11841;49.368;20.962;2023-07-29T08:42:43;3.67;;;2.95;;
23338;SDS011;11841;49.368;20.962;2023-07-29T08:45:34;5.40;;;2.78;;
23338;SDS011;11841;49.368;20.962;2023-07-29T08:48:23;3.85;;;2.65;;
23338;SDS011;11841;49.368;20.962;2023-07-29T08:51:25;5.13;;;2.40;;
23338;SDS011;11841;49.368;20.962;2023-07-29T08:54:12;2.70;;;2.42;;
23338;SDS011;11841;49.368;20.962;2023-07-29T08:56:58;2.78;;;2.33;;
23338;SDS011;11841;49.368;20.962;2023-07-29T08:59:44;4.93;;;2.20;;
23338;SDS011;11841;49.368;20.962;2023-07-29T09:02:30;3.15;;;2.30;;
23338;SDS011;11841;49.368;20.962;2023-07-29T09:05:16;4.05;;;2.53;;
23338;SDS011;11841;49.368;20.962;2023-07-29T09:08:02;4.18;;;3.15;;
23338;SDS011;11841;49.368;20.962;2023-07-29T09:10:47;10.13;;;4.00;;
23338;SDS011;11841;49.368;20.962;2023-07-29T09:13:33;4.68;;;3.22;;
23338;SDS011;11841;49.368;20.962;2023-07-29T09:16:19;4.28;;;2.80;;
23338;SDS011;11841;49.368;20.962;2023-07-29T09:19:06;10.50;;;4.10;;
23338;SDS011;11841;49.368;20.962;2023-07-29T09:21:52;10.35;;;3.30;;
23338;SDS011;11841;49.368;20.962;2023-07-29T09:24:41;9.20;;;3.13;;
23338;SDS011;11841;49.368;20.962;2023-07-29T09:27:27;5.20;;;2.60;;
23338;SDS011;11841;49.368;20.962;2023-07-29T09:30:15;4.80;;;2.50;;
23338;SDS011;11841;49.368;20.962;2023-07-29T09:33:01;6.53;;;2.67;;
23338;SDS011;11841;49.368;20.962;2023-07-29T09:35:46;4.20;;;2.80;;
23338;SDS011;11841;49.368;20.962;2023-07-29T09:38:32;3.08;;;2.63;;
23338;SDS011;11841;49.368;20.962;2023-07-29T09:41:17;6.28;;;2.75;;
23338;SDS011;11841;49.368;20.962;2023-07-29T09:44:03;3.58;;;2.70;;
23338;SDS011;11841;49.368;20.962;2023-07-29T09:46:49;6.43;;;2.72;;
23338;SDS011;11841;49.368;20.962;2023-07-29T09:49:35;7.15;;;2.85;;
23338;SDS011;11841;49.368;20.962;2023-07-29T09:52:23;3.17;;;2.25;;
23338;SDS011;11841;49.368;20.962;2023-07-29T09:55:12;4.40;;;2.63;;
23338;SDS011;11841;49.368;20.962;2023-07-29T09:58:01;7.63;;;3.05;;
23338;SDS011;11841;49.368;20.962;2023-07-29T10:00:49;3.70;;;2.65;;
23338;SDS011;11841;49.368;20.962;2023-07-29T10:03:34;5.10;;;2.80;;
23338;SDS011;11841;49.368;20.962;2023-07-29T10:06:20;2.92;;;2.55;;
23338;SDS011;11841;49.368;20.962;2023-07-29T10:09:07;4.35;;;2.38;;
23338;SDS011;11841;49.368;20.962;2023-07-29T10:11:52;3.50;;;2.33;;
23338;SDS011;11841;49.368;20.962;2023-07-29T10:14:39;4.20;;;3.63;;
23338;SDS011;11841;49.368;20.962;2023-07-29T10:17:26;3.65;;;2.92;;
23338;SDS011;11841;49.368;20.962;2023-07-29T10:20:12;6.22;;;2.95;;
23338;SDS011;11841;49.368;20.962;2023-07-29T10:22:59;3.22;;;2.60;;
23338;SDS011;11841;49.368;20.962;2023-07-29T10:25:47;3.50;;;3.00;;
23338;SDS011;11841;49.368;20.962;2023-07-29T10:28:48;5.53;;;3.17;;
23338;SDS011;11841;49.368;20.962;2023-07-29T10:31:37;3.97;;;2.88;;
23338;SDS011;11841;49.368;20.962;2023-07-29T10:34:25;5.05;;;3.65;;
23338;SDS011;11841;49.368;20.962;2023-07-29T10:37:10;5.45;;;2.80;;
23338;SDS011;11841;49.368;20.962;2023-07-29T10:39:56;4.43;;;3.45;;
23338;SDS011;11841;49.368;20.962;2023-07-29T10:42:59;4.88;;;3.80;;
23338;SDS011;11841;49.368;20.962;2023-07-29T10:45:46;6.78;;;3.75;;
23338;SDS011;11841;49.368;20.962;2023-07-29T10:48:44;40.55;;;13.48;;
23338;SDS011;11841;49.368;20.962;2023-07-29T10:51:37;13.68;;;4.72;;
23338;SDS011;11841;49.368;20.962;2023-07-29T10:54:22;5.78;;;4.25;;
23338;SDS011;11841;49.368;20.962;2023-07-29T10:57:07;10.68;;;5.13;;
23338;SDS011;11841;49.368;20.962;2023-07-29T10:59:58;7.72;;;4.18;;
23338;SDS011;11841;49.368;20.962;2023-07-29T11:02:44;6.45;;;3.70;;
23338;SDS011;11841;49.368;20.962;2023-07-29T11:08:34;7.95;;;4.07;;
23338;SDS011;11841;49.368;20.962;2023-07-29T11:11:20;10.35;;;4.25;;
23338;SDS011;11841;49.368;20.962;2023-07-29T11:14:05;6.55;;;4.68;;
23338;SDS011;11841;49.368;20.962;2023-07-29T11:16:50;5.20;;;4.38;;
23338;SDS011;11841;49.368;20.962;2023-07-29T11:19:37;10.00;;;4.35;;
23338;SDS011;11841;49.368;20.962;2023-07-29T11:22:24;8.68;;;4.53;;
23338;SDS011;11841;49.368;20.962;2023-07-29T11:25:11;9.55;;;4.30;;
23338;SDS011;11841;49.368;20.962;2023-07-29T11:27:59;5.95;;;4.22;;
23338;SDS011;11841;49.368;20.962;2023-07-29T11:30:49;7.57;;;4.03;;
23338;SDS011;11841;49.368;20.962;2023-07-29T11:33:38;10.90;;;4.93;;
23338;SDS011;11841;49.368;20.962;2023-07-29T11:36:24;9.13;;;4.10;;
23338;SDS011;11841;49.368;20.962;2023-07-29T11:39:09;5.40;;;4.10;;
23338;SDS011;11841;49.368;20.962;2023-07-29T11:41:56;9.18;;;4.95;;
23338;SDS011;11841;49.368;20.962;2023-07-29T11:44:41;8.48;;;4.80;;
23338;SDS011;11841;49.368;20.962;2023-07-29T11:47:27;6.65;;;3.95;;
23338;SDS011;11841;49.368;20.962;2023-07-29T11:50:13;6.18;;;3.75;;
23338;SDS011;11841;49.368;20.962;2023-07-29T11:52:59;9.93;;;4.60;;
23338;SDS011;11841;49.368;20.962;2023-07-29T11:55:45;6.05;;;4.30;;
23338;SDS011;11841;49.368;20.962;2023-07-29T11:58:37;16.20;;;4.38;;
23338;SDS011;11841;49.368;20.962;2023-07-29T12:01:22;13.23;;;4.55;;
23338;SDS011;11841;49.368;20.962;2023-07-29T12:04:07;9.57;;;5.18;;
23338;SDS011;11841;49.368;20.962;2023-07-29T12:06:53;11.90;;;6.43;;
23338;SDS011;11841;49.368;20.962;2023-07-29T12:09:39;14.32;;;6.10;;
23338;SDS011;11841;49.368;20.962;2023-07-29T12:12:29;5.90;;;4.18;;
23338;SDS011;11841;49.368;20.962;2023-07-29T12:15:22;7.25;;;3.75;;
23338;SDS011;11841;49.368;20.962;2023-07-29T12:18:09;7.50;;;3.95;;
23338;SDS011;11841;49.368;20.962;2023-07-29T12:20:55;8.60;;;4.78;;
23338;SDS011;11841;49.368;20.962;2023-07-29T12:23:40;5.07;;;3.63;;
23338;SDS011;11841;49.368;20.962;2023-07-29T12:26:29;6.40;;;4.32;;
23338;SDS011;11841;49.368;20.962;2023-07-29T12:29:15;6.88;;;4.55;;
23338;SDS011;11841;49.368;20.962;2023-07-29T12:32:04;5.47;;;4.10;;
23338;SDS011;11841;49.368;20.962;2023-07-29T12:34:49;5.40;;;4.10;;
23338;SDS011;11841;49.368;20.962;2023-07-29T12:37:35;5.75;;;4.63;;
23338;SDS011;11841;49.368;20.962;2023-07-29T12:40:24;7.10;;;4.20;;
23338;SDS011;11841;49.368;20.962;2023-07-29T12:43:10;6.53;;;4.53;;
23338;SDS011;11841;49.368;20.962;2023-07-29T12:45:56;5.57;;;4.22;;
23338;SDS011;11841;49.368;20.962;2023-07-29T12:48:42;8.68;;;3.67;;
23338;SDS011;11841;49.368;20.962;2023-07-29T12:51:27;5.97;;;4.25;;
23338;SDS011;11841;49.368;20.962;2023-07-29T12:54:13;7.28;;;4.20;;
23338;SDS011;11841;49.368;20.962;2023-07-29T12:56:58;4.82;;;3.65;;
23338;SDS011;11841;49.368;20.962;2023-07-29T12:59:43;7.45;;;4.05;;
23338;SDS011;11841;49.368;20.962;2023-07-29T13:02:28;6.20;;;3.97;;
23338;SDS011;11841;49.368;20.962;2023-07-29T13:05:14;11.02;;;4.28;;
23338;SDS011;11841;49.368;20.962;2023-07-29T13:07:59;5.88;;;4.65;;
23338;SDS011;11841;49.368;20.962;2023-07-29T13:10:44;5.63;;;4.05;;
23338;SDS011;11841;49.368;20.962;2023-07-29T13:13:30;5.47;;;3.42;;
23338;SDS011;11841;49.368;20.962;2023-07-29T13:16:15;4.75;;;3.45;;
23338;SDS011;11841;49.368;20.962;2023-07-29T13:19:00;6.05;;;3.50;;
23338;SDS011;11841;49.368;20.962;2023-07-29T13:21:46;6.00;;;3.22;;
23338;SDS011;11841;49.368;20.962;2023-07-29T13:24:35;9.25;;;4.00;;
23338;SDS011;11841;49.368;20.962;2023-07-29T13:27:20;8.65;;;4.47;;
23338;SDS011;11841;49.368;20.962;2023-07-29T13:30:06;5.65;;;3.90;;
23338;SDS011;11841;49.368;20.962;2023-07-29T13:32:52;5.78;;;3.50;;
23338;SDS011;11841;49.368;20.962;2023-07-29T13:35:37;4.93;;;3.63;;
23338;SDS011;11841;49.368;20.962;2023-07-29T13:38:22;8.10;;;4.57;;
23338;SDS011;11841;49.368;20.962;2023-07-29T13:41:08;6.60;;;4.07;;
23338;SDS011;11841;49.368;20.962;2023-07-29T13:43:53;18.25;;;4.90;;
23338;SDS011;11841;49.368;20.962;2023-07-29T13:46:39;11.80;;;7.68;;
23338;SDS011;11841;49.368;20.962;2023-07-29T13:49:24;9.82;;;6.57;;
23338;SDS011;11841;49.368;20.962;2023-07-29T13:52:09;6.68;;;4.60;;
23338;SDS011;11841;49.368;20.962;2023-07-29T13:54:55;6.53;;;4.15;;
23338;SDS011;11841;49.368;20.962;2023-07-29T13:57:40;8.50;;;4.20;;
23338;SDS011;11841;49.368;20.962;2023-07-29T14:00:26;13.80;;;6.88;;
23338;SDS011;11841;49.368;20.962;2023-07-29T14:03:11;9.63;;;4.85;;
23338;SDS011;11841;49.368;20.962;2023-07-29T14:05:56;9.07;;;5.57;;
23338;SDS011;11841;49.368;20.962;2023-07-29T14:08:41;8.63;;;5.70;;
23338;SDS011;11841;49.368;20.962;2023-07-29T14:11:27;9.95;;;4.50;;
23338;SDS011;11841;49.368;20.962;2023-07-29T14:14:12;10.02;;;5.63;;
23338;SDS011;11841;49.368;20.962;2023-07-29T14:16:58;13.57;;;7.28;;
23338;SDS011;11841;49.368;20.962;2023-07-29T14:19:43;11.38;;;6.13;;
23338;SDS011;11841;49.368;20.962;2023-07-29T14:22:28;8.20;;;4.93;;
23338;SDS011;11841;49.368;20.962;2023-07-29T14:25:13;10.43;;;5.43;;
23338;SDS011;11841;49.368;20.962;2023-07-29T14:27:59;15.00;;;7.50;;
23338;SDS011;11841;49.368;20.962;2023-07-29T14:30:44;7.10;;;3.97;;
23338;SDS011;11841;49.368;20.962;2023-07-29T14:33:30;7.47;;;4.07;;
23338;SDS011;11841;49.368;20.962;2023-07-29T14:36:16;7.65;;;4.22;;
23338;SDS011;11841;49.368;20.962;2023-07-29T14:39:01;9.77;;;3.97;;
23338;SDS011;11841;49.368;20.962;2023-07-29T14:41:46;6.78;;;3.58;;
23338;SDS011;11841;49.368;20.962;2023-07-29T14:44:32;7.30;;;3.10;;
23338;SDS011;11841;49.368;20.962;2023-07-29T14:47:17;5.57;;;3.92;;
23338;SDS011;11841;49.368;20.962;2023-07-29T14:50:03;8.18;;;3.63;;
23338;SDS011;11841;49.368;20.962;2023-07-29T14:52:48;5.60;;;3.72;;
23338;SDS011;11841;49.368;20.962;2023-07-29T14:55:34;5.82;;;4.38;;
23338;SDS011;11841;49.368;20.962;2023-07-29T14:58:19;4.38;;;3.58;;
23338;SDS011;11841;49.368;20.962;2023-07-29T15:01:04;7.72;;;4.10;;
23338;SDS011;11841;49.368;20.962;2023-07-29T15:03:50;4.70;;;3.83;;
23338;SDS011;11841;49.368;20.962;2023-07-29T15:06:35;5.18;;;3.63;;
23338;SDS011;11841;49.368;20.962;2023-07-29T15:09:21;8.02;;;3.75;;
23338;SDS011;11841;49.368;20.962;2023-07-29T15:12:06;5.90;;;3.70;;
23338;SDS011;11841;49.368;20.962;2023-07-29T15:14:52;4.72;;;3.60;;
23338;SDS011;11841;49.368;20.962;2023-07-29T15:17:37;6.65;;;4.10;;
23338;SDS011;11841;49.368;20.962;2023-07-29T15:20:23;3.97;;;3.47;;
23338;SDS011;11841;49.368;20.962;2023-07-29T15:23:08;5.22;;;3.65;;
23338;SDS011;11841;49.368;20.962;2023-07-29T15:25:55;6.65;;;3.83;;
23338;SDS011;11841;49.368;20.962;2023-07-29T15:28:40;8.38;;;4.03;;
23338;SDS011;11841;49.368;20.962;2023-07-29T15:31:25;5.82;;;3.90;;
23338;SDS011;11841;49.368;20.962;2023-07-29T15:34:11;8.95;;;4.43;;
23338;SDS011;11841;49.368;20.962;2023-07-29T15:36:56;6.10;;;3.38;;
23338;SDS011;11841;49.368;20.962;2023-07-29T15:39:42;7.45;;;3.70;;
23338;SDS011;11841;49.368;20.962;2023-07-29T15:42:27;4.97;;;3.30;;
23338;SDS011;11841;49.368;20.962;2023-07-29T15:45:13;5.10;;;3.20;;
23338;SDS011;11841;49.368;20.962;2023-07-29T15:47:58;5.57;;;3.67;;
23338;SDS011;11841;49.368;20.962;2023-07-29T15:50:44;6.25;;;3.70;;
23338;SDS011;11841;49.368;20.962;2023-07-29T15:53:29;6.55;;;3.85;;
23338;SDS011;11841;49.368;20.962;2023-07-29T15:56:14;6.15;;;3.42;;
23338;SDS011;11841;49.368;20.962;2023-07-29T15:59:00;6.90;;;3.08;;
23338;SDS011;11841;49.368;20.962;2023-07-29T16:01:45;10.38;;;3.65;;
23338;SDS011;11841;49.368;20.962;2023-07-29T16:04:30;6.70;;;3.70;;
23338;SDS011;11841;49.368;20.962;2023-07-29T16:07:16;5.53;;;3.60;;
23338;SDS011;11841;49.368;20.962;2023-07-29T16:10:01;5.05;;;3.72;;
23338;SDS011;11841;49.368;20.962;2023-07-29T16:12:46;6.20;;;3.95;;
23338;SDS011;11841;49.368;20.962;2023-07-29T16:15:32;5.60;;;3.45;;
23338;SDS011;11841;49.368;20.962;2023-07-29T16:18:17;5.05;;;3.55;;
23338;SDS011;11841;49.368;20.962;2023-07-29T16:21:02;5.38;;;3.22;;
23338;SDS011;11841;49.368;20.962;2023-07-29T16:23:48;7.78;;;3.83;;
23338;SDS011;11841;49.368;20.962;2023-07-29T16:26:37;3.15;;;2.78;;
23338;SDS011;11841;49.368;20.962;2023-07-29T16:29:23;3.92;;;3.35;;
23338;SDS011;11841;49.368;20.962;2023-07-29T16:32:08;5.05;;;3.22;;